sensor_id;sensor_type;location;lat;lon;timestamp;temperature;humidity
55785;DHT22;41709;52.536;5.688;2022-10-31T00:01:36;13.60;84.50
55785;DHT22;41709;52.536;5.688;2022-10-31T00:04:02;13.50;84.40
55785;DHT22;41709;52.536;5.688;2022-10-31T00:06:28;13.50;84.60
55785;DHT22;41709;52.536;5.688;2022-10-31T00:08:59;13.50;84.70
55785;DHT22;41709;52.536;5.688;2022-10-31T00:11:25;13.40;84.90
55785;DHT22;41709;52.536;5.688;2022-10-31T00:13:51;13.40;85.10
55785;DHT22;41709;52.536;5.688;2022-10-31T00:16:22;13.40;85.20
55785;DHT22;41709;52.536;5.688;2022-10-31T00:18:52;13.40;85.40
55785;DHT22;41709;52.536;5.688;2022-10-31T00:21:19;13.30;85.60
55785;DHT22;41709;52.536;5.688;2022-10-31T00:23:45;13.40;85.90
55785;DHT22;41709;52.536;5.688;2022-10-31T00:26:11;13.30;85.90
55785;DHT22;41709;52.536;5.688;2022-10-31T00:28:37;13.30;86.10
55785;DHT22;41709;52.536;5.688;2022-10-31T00:31:04;13.30;86.10
55785;DHT22;41709;52.536;5.688;2022-10-31T00:33:32;13.30;86.20
55785;DHT22;41709;52.536;5.688;2022-10-31T00:35:58;13.30;86.40
55785;DHT22;41709;52.536;5.688;2022-10-31T00:38:24;13.30;86.30
55785;DHT22;41709;52.536;5.688;2022-10-31T00:40:49;13.30;86.20
55785;DHT22;41709;52.536;5.688;2022-10-31T00:43:15;13.30;86.30
55785;DHT22;41709;52.536;5.688;2022-10-31T00:45:41;13.20;86.30
55785;DHT22;41709;52.536;5.688;2022-10-31T00:48:08;13.30;86.40
55785;DHT22;41709;52.536;5.688;2022-10-31T00:50:33;13.30;86.40
55785;DHT22;41709;52.536;5.688;2022-10-31T00:52:59;13.20;86.40
55785;DHT22;41709;52.536;5.688;2022-10-31T00:55:25;13.20;86.30
55785;DHT22;41709;52.536;5.688;2022-10-31T00:57:50;13.30;86.40
55785;DHT22;41709;52.536;5.688;2022-10-31T01:00:16;13.30;86.40
55785;DHT22;41709;52.536;5.688;2022-10-31T01:02:41;13.30;86.40
55785;DHT22;41709;52.536;5.688;2022-10-31T01:05:07;13.30;86.40
55785;DHT22;41709;52.536;5.688;2022-10-31T01:07:36;13.20;86.30
55785;DHT22;41709;52.536;5.688;2022-10-31T01:10:02;13.20;87.00
55785;DHT22;41709;52.536;5.688;2022-10-31T01:12:28;13.30;86.90
55785;DHT22;41709;52.536;5.688;2022-10-31T01:14:53;13.30;86.40
55785;DHT22;41709;52.536;5.688;2022-10-31T01:17:19;13.20;86.40
55785;DHT22;41709;52.536;5.688;2022-10-31T01:19:44;13.20;86.60
55785;DHT22;41709;52.536;5.688;2022-10-31T01:22:10;13.20;86.70
55785;DHT22;41709;52.536;5.688;2022-10-31T01:24:36;13.10;86.80
55785;DHT22;41709;52.536;5.688;2022-10-31T01:27:02;13.10;86.80
55785;DHT22;41709;52.536;5.688;2022-10-31T01:29:27;13.20;87.00
55785;DHT22;41709;52.536;5.688;2022-10-31T01:31:53;13.10;87.00
55785;DHT22;41709;52.536;5.688;2022-10-31T01:34:19;13.00;87.00
55785;DHT22;41709;52.536;5.688;2022-10-31T01:36:46;13.00;87.10
55785;DHT22;41709;52.536;5.688;2022-10-31T01:39:16;13.00;87.20
55785;DHT22;41709;52.536;5.688;2022-10-31T01:41:46;13.00;87.10
55785;DHT22;41709;52.536;5.688;2022-10-31T01:52:03;13.00;87.00
55785;DHT22;41709;52.536;5.688;2022-10-31T01:54:34;13.00;87.00
55785;DHT22;41709;52.536;5.688;2022-10-31T01:57:02;12.90;87.00
55785;DHT22;41709;52.536;5.688;2022-10-31T01:59:31;12.90;86.90
55785;DHT22;41709;52.536;5.688;2022-10-31T02:01:57;12.90;87.00
55785;DHT22;41709;52.536;5.688;2022-10-31T02:04:24;12.90;86.90
55785;DHT22;41709;52.536;5.688;2022-10-31T02:07:03;12.90;86.70
55785;DHT22;41709;52.536;5.688;2022-10-31T02:09:31;12.90;86.20
55785;DHT22;41709;52.536;5.688;2022-10-31T02:11:59;12.90;86.10
55785;DHT22;41709;52.536;5.688;2022-10-31T02:14:26;12.90;85.90
55785;DHT22;41709;52.536;5.688;2022-10-31T02:16:54;12.80;85.60
55785;DHT22;41709;52.536;5.688;2022-10-31T02:31:47;12.70;85.10
55785;DHT22;41709;52.536;5.688;2022-10-31T02:33:57;12.60;85.00
55785;DHT22;41709;52.536;5.688;2022-10-31T02:36:33;12.60;85.30
55785;DHT22;41709;52.536;5.688;2022-10-31T02:39:13;12.60;85.20
55785;DHT22;41709;52.536;5.688;2022-10-31T02:41:48;12.50;85.80
55785;DHT22;41709;52.536;5.688;2022-10-31T02:44:16;12.50;85.20
55785;DHT22;41709;52.536;5.688;2022-10-31T02:47:03;12.40;85.40
55785;DHT22;41709;52.536;5.688;2022-10-31T02:49:50;12.40;85.60
55785;DHT22;41709;52.536;5.688;2022-10-31T02:52:21;12.60;86.00
55785;DHT22;41709;52.536;5.688;2022-10-31T02:54:47;12.30;85.70
55785;DHT22;41709;52.536;5.688;2022-10-31T02:57:14;12.30;85.60
55785;DHT22;41709;52.536;5.688;2022-10-31T02:59:56;12.30;85.60
55785;DHT22;41709;52.536;5.688;2022-10-31T03:05:50;12.20;85.70
55785;DHT22;41709;52.536;5.688;2022-10-31T03:08:39;12.20;85.50
55785;DHT22;41709;52.536;5.688;2022-10-31T03:11:08;12.20;85.90
55785;DHT22;41709;52.536;5.688;2022-10-31T03:13:41;12.20;85.80
55785;DHT22;41709;52.536;5.688;2022-10-31T03:18:46;12.10;85.90
55785;DHT22;41709;52.536;5.688;2022-10-31T03:21:21;12.10;86.40
55785;DHT22;41709;52.536;5.688;2022-10-31T03:23:50;12.00;86.50
55785;DHT22;41709;52.536;5.688;2022-10-31T03:26:17;12.00;86.50
55785;DHT22;41709;52.536;5.688;2022-10-31T03:28:59;12.00;86.60
55785;DHT22;41709;52.536;5.688;2022-10-31T03:31:30;12.00;86.80
55785;DHT22;41709;52.536;5.688;2022-10-31T03:34:00;12.00;86.70
55785;DHT22;41709;52.536;5.688;2022-10-31T03:36:27;12.00;86.80
55785;DHT22;41709;52.536;5.688;2022-10-31T03:38:54;11.90;86.80
55785;DHT22;41709;52.536;5.688;2022-10-31T03:41:23;11.90;86.90
55785;DHT22;41709;52.536;5.688;2022-10-31T03:44:23;11.90;86.90
55785;DHT22;41709;52.536;5.688;2022-10-31T03:46:49;11.90;87.00
55785;DHT22;41709;52.536;5.688;2022-10-31T03:49:16;11.90;86.70
55785;DHT22;41709;52.536;5.688;2022-10-31T03:51:49;11.90;86.50
55785;DHT22;41709;52.536;5.688;2022-10-31T03:59:42;11.80;86.00
55785;DHT22;41709;52.536;5.688;2022-10-31T04:02:14;11.80;86.00
55785;DHT22;41709;52.536;5.688;2022-10-31T04:04:41;11.80;85.90
55785;DHT22;41709;52.536;5.688;2022-10-31T04:07:09;11.70;85.80
55785;DHT22;41709;52.536;5.688;2022-10-31T04:09:37;11.70;86.00
55785;DHT22;41709;52.536;5.688;2022-10-31T04:12:06;11.60;86.00
55785;DHT22;41709;52.536;5.688;2022-10-31T04:14:37;11.60;86.20
55785;DHT22;41709;52.536;5.688;2022-10-31T04:17:06;11.60;86.40
55785;DHT22;41709;52.536;5.688;2022-10-31T04:19:34;11.60;86.90
55785;DHT22;41709;52.536;5.688;2022-10-31T04:21:59;11.60;87.40
55785;DHT22;41709;52.536;5.688;2022-10-31T04:24:25;11.50;87.50
55785;DHT22;41709;52.536;5.688;2022-10-31T04:26:50;11.60;88.00
55785;DHT22;41709;52.536;5.688;2022-10-31T04:29:16;11.60;88.10
55785;DHT22;41709;52.536;5.688;2022-10-31T04:31:42;11.60;88.40
55785;DHT22;41709;52.536;5.688;2022-10-31T04:34:07;11.60;88.40
55785;DHT22;41709;52.536;5.688;2022-10-31T04:36:33;11.60;88.50
55785;DHT22;41709;52.536;5.688;2022-10-31T04:38:58;11.60;88.40
55785;DHT22;41709;52.536;5.688;2022-10-31T04:41:24;11.60;88.30
55785;DHT22;41709;52.536;5.688;2022-10-31T04:43:49;11.60;88.10
55785;DHT22;41709;52.536;5.688;2022-10-31T04:46:15;11.60;88.40
55785;DHT22;41709;52.536;5.688;2022-10-31T04:48:40;11.60;88.10
55785;DHT22;41709;52.536;5.688;2022-10-31T04:51:06;11.50;88.10
55785;DHT22;41709;52.536;5.688;2022-10-31T04:53:32;11.50;88.10
55785;DHT22;41709;52.536;5.688;2022-10-31T04:55:58;11.50;88.10
55785;DHT22;41709;52.536;5.688;2022-10-31T04:58:26;11.50;88.10
55785;DHT22;41709;52.536;5.688;2022-10-31T05:00:53;11.60;87.80
55785;DHT22;41709;52.536;5.688;2022-10-31T05:03:18;11.50;87.60
55785;DHT22;41709;52.536;5.688;2022-10-31T05:05:44;11.50;87.60
55785;DHT22;41709;52.536;5.688;2022-10-31T05:08:10;11.50;87.50
55785;DHT22;41709;52.536;5.688;2022-10-31T05:10:36;11.50;87.50
55785;DHT22;41709;52.536;5.688;2022-10-31T05:13:03;11.40;87.40
55785;DHT22;41709;52.536;5.688;2022-10-31T05:15:28;11.40;87.30
55785;DHT22;41709;52.536;5.688;2022-10-31T05:17:55;11.40;87.20
55785;DHT22;41709;52.536;5.688;2022-10-31T05:20:22;11.40;87.20
55785;DHT22;41709;52.536;5.688;2022-10-31T05:22:50;11.40;87.30
55785;DHT22;41709;52.536;5.688;2022-10-31T05:25:17;11.40;87.90
55785;DHT22;41709;52.536;5.688;2022-10-31T05:27:44;11.30;87.10
55785;DHT22;41709;52.536;5.688;2022-10-31T05:30:12;11.30;86.90
55785;DHT22;41709;52.536;5.688;2022-10-31T05:32:42;11.30;86.70
55785;DHT22;41709;52.536;5.688;2022-10-31T05:35:10;11.30;86.80
55785;DHT22;41709;52.536;5.688;2022-10-31T05:37:36;11.20;86.80
55785;DHT22;41709;52.536;5.688;2022-10-31T05:40:03;11.20;86.80
55785;DHT22;41709;52.536;5.688;2022-10-31T05:42:29;11.20;86.90
55785;DHT22;41709;52.536;5.688;2022-10-31T05:44:55;11.20;86.80
55785;DHT22;41709;52.536;5.688;2022-10-31T05:47:20;11.20;86.70
55785;DHT22;41709;52.536;5.688;2022-10-31T05:49:46;11.10;86.60
55785;DHT22;41709;52.536;5.688;2022-10-31T05:52:12;11.10;86.50
55785;DHT22;41709;52.536;5.688;2022-10-31T05:54:37;11.10;86.60
55785;DHT22;41709;52.536;5.688;2022-10-31T05:57:03;11.10;86.80
55785;DHT22;41709;52.536;5.688;2022-10-31T05:59:28;11.00;87.00
55785;DHT22;41709;52.536;5.688;2022-10-31T06:01:54;11.00;87.10
55785;DHT22;41709;52.536;5.688;2022-10-31T06:04:19;11.00;87.20
55785;DHT22;41709;52.536;5.688;2022-10-31T06:06:45;11.00;87.10
55785;DHT22;41709;52.536;5.688;2022-10-31T06:09:10;11.00;87.00
55785;DHT22;41709;52.536;5.688;2022-10-31T06:11:36;11.00;86.70
55785;DHT22;41709;52.536;5.688;2022-10-31T06:14:01;11.00;86.60
55785;DHT22;41709;52.536;5.688;2022-10-31T06:16:27;10.90;86.50
55785;DHT22;41709;52.536;5.688;2022-10-31T06:18:53;10.90;86.50
55785;DHT22;41709;52.536;5.688;2022-10-31T06:21:18;10.90;86.80
55785;DHT22;41709;52.536;5.688;2022-10-31T06:23:44;10.90;87.00
55785;DHT22;41709;52.536;5.688;2022-10-31T06:26:09;10.90;87.20
55785;DHT22;41709;52.536;5.688;2022-10-31T06:28:35;10.90;87.40
55785;DHT22;41709;52.536;5.688;2022-10-31T06:31:00;10.80;87.60
55785;DHT22;41709;52.536;5.688;2022-10-31T06:33:26;10.90;87.60
55785;DHT22;41709;52.536;5.688;2022-10-31T06:35:51;10.80;87.60
55785;DHT22;41709;52.536;5.688;2022-10-31T06:38:17;10.80;87.60
55785;DHT22;41709;52.536;5.688;2022-10-31T06:40:42;10.80;87.60
55785;DHT22;41709;52.536;5.688;2022-10-31T06:43:08;10.80;88.30
55785;DHT22;41709;52.536;5.688;2022-10-31T06:45:34;10.70;87.60
55785;DHT22;41709;52.536;5.688;2022-10-31T06:47:59;10.80;87.60
55785;DHT22;41709;52.536;5.688;2022-10-31T06:50:25;10.70;87.50
55785;DHT22;41709;52.536;5.688;2022-10-31T06:52:52;10.70;87.50
55785;DHT22;41709;52.536;5.688;2022-10-31T06:55:17;10.70;87.40
55785;DHT22;41709;52.536;5.688;2022-10-31T06:57:49;10.70;87.40
55785;DHT22;41709;52.536;5.688;2022-10-31T07:00:15;10.70;87.40
55785;DHT22;41709;52.536;5.688;2022-10-31T07:02:41;10.70;87.60
55785;DHT22;41709;52.536;5.688;2022-10-31T07:05:06;10.70;87.50
55785;DHT22;41709;52.536;5.688;2022-10-31T07:07:32;10.70;87.70
55785;DHT22;41709;52.536;5.688;2022-10-31T07:09:57;10.70;88.00
55785;DHT22;41709;52.536;5.688;2022-10-31T07:12:23;10.60;88.10
55785;DHT22;41709;52.536;5.688;2022-10-31T07:14:48;10.70;88.60
55785;DHT22;41709;52.536;5.688;2022-10-31T07:17:14;10.60;89.00
55785;DHT22;41709;52.536;5.688;2022-10-31T07:19:40;10.70;89.40
55785;DHT22;41709;52.536;5.688;2022-10-31T07:22:06;10.70;89.80
55785;DHT22;41709;52.536;5.688;2022-10-31T07:24:32;10.70;90.00
55785;DHT22;41709;52.536;5.688;2022-10-31T07:26:57;10.70;90.20
55785;DHT22;41709;52.536;5.688;2022-10-31T07:29:23;10.80;90.30
55785;DHT22;41709;52.536;5.688;2022-10-31T07:31:48;10.80;90.40
55785;DHT22;41709;52.536;5.688;2022-10-31T07:34:14;10.80;90.50
55785;DHT22;41709;52.536;5.688;2022-10-31T07:36:39;10.90;90.60
55785;DHT22;41709;52.536;5.688;2022-10-31T07:39:05;10.90;90.70
55785;DHT22;41709;52.536;5.688;2022-10-31T07:41:31;11.00;90.70
55785;DHT22;41709;52.536;5.688;2022-10-31T07:43:56;11.00;90.70
55785;DHT22;41709;52.536;5.688;2022-10-31T07:46:22;11.00;90.80
55785;DHT22;41709;52.536;5.688;2022-10-31T07:48:47;11.10;90.80
55785;DHT22;41709;52.536;5.688;2022-10-31T07:51:13;11.10;90.80
55785;DHT22;41709;52.536;5.688;2022-10-31T07:53:38;11.20;90.80
55785;DHT22;41709;52.536;5.688;2022-10-31T07:56:04;11.20;90.80
55785;DHT22;41709;52.536;5.688;2022-10-31T07:58:30;11.30;90.90
55785;DHT22;41709;52.536;5.688;2022-10-31T08:00:57;11.30;90.80
55785;DHT22;41709;52.536;5.688;2022-10-31T08:03:22;11.30;90.80
55785;DHT22;41709;52.536;5.688;2022-10-31T08:05:48;11.30;90.80
55785;DHT22;41709;52.536;5.688;2022-10-31T08:08:14;11.40;90.90
55785;DHT22;41709;52.536;5.688;2022-10-31T08:10:39;11.40;91.20
55785;DHT22;41709;52.536;5.688;2022-10-31T08:13:11;11.50;91.00
55785;DHT22;41709;52.536;5.688;2022-10-31T08:15:37;11.50;91.00
55785;DHT22;41709;52.536;5.688;2022-10-31T08:18:14;11.60;91.00
55785;DHT22;41709;52.536;5.688;2022-10-31T08:20:41;11.60;91.00
55785;DHT22;41709;52.536;5.688;2022-10-31T08:23:08;11.60;91.00
55785;DHT22;41709;52.536;5.688;2022-10-31T08:25:35;11.70;91.00
55785;DHT22;41709;52.536;5.688;2022-10-31T08:28:00;11.70;91.00
55785;DHT22;41709;52.536;5.688;2022-10-31T08:30:29;11.70;90.90
55785;DHT22;41709;52.536;5.688;2022-10-31T08:32:59;11.80;90.90
55785;DHT22;41709;52.536;5.688;2022-10-31T08:35:25;11.80;90.90
55785;DHT22;41709;52.536;5.688;2022-10-31T08:37:53;11.80;90.90
55785;DHT22;41709;52.536;5.688;2022-10-31T08:40:19;11.90;91.00
55785;DHT22;41709;52.536;5.688;2022-10-31T08:42:45;11.90;91.00
55785;DHT22;41709;52.536;5.688;2022-10-31T08:45:10;11.90;91.00
55785;DHT22;41709;52.536;5.688;2022-10-31T08:47:36;12.00;91.00
55785;DHT22;41709;52.536;5.688;2022-10-31T08:50:01;12.10;91.00
55785;DHT22;41709;52.536;5.688;2022-10-31T08:52:27;12.10;91.00
55785;DHT22;41709;52.536;5.688;2022-10-31T08:54:52;12.10;91.00
55785;DHT22;41709;52.536;5.688;2022-10-31T08:57:18;12.10;90.90
55785;DHT22;41709;52.536;5.688;2022-10-31T08:59:43;12.20;90.90
55785;DHT22;41709;52.536;5.688;2022-10-31T09:02:09;12.20;90.90
55785;DHT22;41709;52.536;5.688;2022-10-31T09:04:34;12.20;90.90
55785;DHT22;41709;52.536;5.688;2022-10-31T09:07:00;12.30;91.00
55785;DHT22;41709;52.536;5.688;2022-10-31T09:09:26;12.30;91.00
55785;DHT22;41709;52.536;5.688;2022-10-31T09:11:51;12.40;91.10
55785;DHT22;41709;52.536;5.688;2022-10-31T09:14:17;12.40;91.10
55785;DHT22;41709;52.536;5.688;2022-10-31T09:16:42;12.50;91.10
55785;DHT22;41709;52.536;5.688;2022-10-31T09:19:08;12.50;91.10
55785;DHT22;41709;52.536;5.688;2022-10-31T09:21:33;12.60;91.20
55785;DHT22;41709;52.536;5.688;2022-10-31T09:23:59;12.60;91.20
55785;DHT22;41709;52.536;5.688;2022-10-31T09:26:24;12.70;91.20
55785;DHT22;41709;52.536;5.688;2022-10-31T09:28:50;12.70;91.20
55785;DHT22;41709;52.536;5.688;2022-10-31T09:31:15;12.80;91.20
55785;DHT22;41709;52.536;5.688;2022-10-31T09:33:41;12.80;91.10
55785;DHT22;41709;52.536;5.688;2022-10-31T09:36:07;12.90;91.10
55785;DHT22;41709;52.536;5.688;2022-10-31T09:38:33;12.90;91.10
55785;DHT22;41709;52.536;5.688;2022-10-31T09:41:27;13.10;91.00
55785;DHT22;41709;52.536;5.688;2022-10-31T09:52:08;13.20;90.50
55785;DHT22;41709;52.536;5.688;2022-10-31T09:54:46;13.30;90.60
55785;DHT22;41709;52.536;5.688;2022-10-31T09:57:14;13.30;90.50
55785;DHT22;41709;52.536;5.688;2022-10-31T09:59:43;13.40;90.40
55785;DHT22;41709;52.536;5.688;2022-10-31T10:02:41;13.50;90.50
55785;DHT22;41709;52.536;5.688;2022-10-31T10:05:12;13.50;90.40
55785;DHT22;41709;52.536;5.688;2022-10-31T10:08:00;13.60;90.60
55785;DHT22;41709;52.536;5.688;2022-10-31T10:10:59;13.70;90.20
55785;DHT22;41709;52.536;5.688;2022-10-31T10:13:45;13.70;90.10
55785;DHT22;41709;52.536;5.688;2022-10-31T10:16:23;13.80;90.00
55785;DHT22;41709;52.536;5.688;2022-10-31T10:21:59;13.90;89.20
55785;DHT22;41709;52.536;5.688;2022-10-31T10:27:48;14.00;89.10
55785;DHT22;41709;52.536;5.688;2022-10-31T10:30:21;14.00;88.90
55785;DHT22;41709;52.536;5.688;2022-10-31T10:32:59;14.10;88.60
55785;DHT22;41709;52.536;5.688;2022-10-31T10:35:35;14.20;88.20
55785;DHT22;41709;52.536;5.688;2022-10-31T10:38:27;14.30;88.10
55785;DHT22;41709;52.536;5.688;2022-10-31T10:40:54;14.30;88.10
55785;DHT22;41709;52.536;5.688;2022-10-31T10:43:29;14.40;88.00
55785;DHT22;41709;52.536;5.688;2022-10-31T10:46:30;14.50;87.90
55785;DHT22;41709;52.536;5.688;2022-10-31T10:55:40;14.70;87.70
55785;DHT22;41709;52.536;5.688;2022-10-31T10:58:09;14.80;87.50
55785;DHT22;41709;52.536;5.688;2022-10-31T11:00:41;14.80;86.70
55785;DHT22;41709;52.536;5.688;2022-10-31T11:03:07;14.80;85.90
55785;DHT22;41709;52.536;5.688;2022-10-31T11:05:41;14.90;85.90
55785;DHT22;41709;52.536;5.688;2022-10-31T11:08:08;15.00;85.40
55785;DHT22;41709;52.536;5.688;2022-10-31T11:10:34;15.00;84.80
55785;DHT22;41709;52.536;5.688;2022-10-31T11:13:05;15.10;84.40
55785;DHT22;41709;52.536;5.688;2022-10-31T11:15:36;15.10;84.00
55785;DHT22;41709;52.536;5.688;2022-10-31T11:18:03;15.20;83.80
55785;DHT22;41709;52.536;5.688;2022-10-31T11:20:32;15.30;83.90
55785;DHT22;41709;52.536;5.688;2022-10-31T11:23:20;15.30;83.90
55785;DHT22;41709;52.536;5.688;2022-10-31T11:26:19;15.40;83.80
55785;DHT22;41709;52.536;5.688;2022-10-31T11:28:59;15.50;83.20
55785;DHT22;41709;52.536;5.688;2022-10-31T11:31:25;15.50;83.20
55785;DHT22;41709;52.536;5.688;2022-10-31T11:33:58;15.70;83.10
55785;DHT22;41709;52.536;5.688;2022-10-31T11:36:26;15.70;82.70
55785;DHT22;41709;52.536;5.688;2022-10-31T11:38:53;15.70;81.90
55785;DHT22;41709;52.536;5.688;2022-10-31T11:43:56;15.80;81.10
55785;DHT22;41709;52.536;5.688;2022-10-31T11:46:39;15.90;80.90
55785;DHT22;41709;52.536;5.688;2022-10-31T11:49:34;15.80;80.60
55785;DHT22;41709;52.536;5.688;2022-10-31T11:52:08;15.80;80.60
55785;DHT22;41709;52.536;5.688;2022-10-31T11:54:49;15.90;80.80
55785;DHT22;41709;52.536;5.688;2022-10-31T11:57:26;15.90;80.40
55785;DHT22;41709;52.536;5.688;2022-10-31T11:59:58;15.90;80.60
55785;DHT22;41709;52.536;5.688;2022-10-31T12:02:25;16.00;79.90
55785;DHT22;41709;52.536;5.688;2022-10-31T12:07:29;15.90;80.00
55785;DHT22;41709;52.536;5.688;2022-10-31T12:09:54;16.00;80.00
55785;DHT22;41709;52.536;5.688;2022-10-31T12:15:29;16.10;79.80
55785;DHT22;41709;52.536;5.688;2022-10-31T12:26:17;16.30;79.60
55785;DHT22;41709;52.536;5.688;2022-10-31T12:32:23;16.40;79.90
55785;DHT22;41709;52.536;5.688;2022-10-31T12:46:02;16.50;80.30
55785;DHT22;41709;52.536;5.688;2022-10-31T12:49:05;16.50;79.50
55785;DHT22;41709;52.536;5.688;2022-10-31T12:57:27;16.40;80.70
55785;DHT22;41709;52.536;5.688;2022-10-31T13:00:17;16.40;79.70
55785;DHT22;41709;52.536;5.688;2022-10-31T13:03:22;16.40;79.90
55785;DHT22;41709;52.536;5.688;2022-10-31T13:05:54;16.40;80.10
55785;DHT22;41709;52.536;5.688;2022-10-31T13:08:36;16.30;79.90
55785;DHT22;41709;52.536;5.688;2022-10-31T13:11:36;16.40;80.20
55785;DHT22;41709;52.536;5.688;2022-10-31T13:14:12;16.30;80.30
55785;DHT22;41709;52.536;5.688;2022-10-31T13:16:43;16.40;79.80
55785;DHT22;41709;52.536;5.688;2022-10-31T13:19:20;16.40;79.80
55785;DHT22;41709;52.536;5.688;2022-10-31T13:27:21;16.30;80.60
55785;DHT22;41709;52.536;5.688;2022-10-31T13:29:58;16.30;80.60
55785;DHT22;41709;52.536;5.688;2022-10-31T13:32:44;16.30;81.00
55785;DHT22;41709;52.536;5.688;2022-10-31T13:35:42;16.30;81.00
55785;DHT22;41709;52.536;5.688;2022-10-31T13:38:28;16.40;81.10
55785;DHT22;41709;52.536;5.688;2022-10-31T13:41:46;16.40;80.80
55785;DHT22;41709;52.536;5.688;2022-10-31T13:46:45;16.40;80.60
55785;DHT22;41709;52.536;5.688;2022-10-31T13:49:38;16.40;80.70
55785;DHT22;41709;52.536;5.688;2022-10-31T13:54:37;16.40;80.60
55785;DHT22;41709;52.536;5.688;2022-10-31T13:57:14;16.60;80.80
55785;DHT22;41709;52.536;5.688;2022-10-31T13:59:53;16.40;80.80
55785;DHT22;41709;52.536;5.688;2022-10-31T14:02:31;16.40;80.70
55785;DHT22;41709;52.536;5.688;2022-10-31T14:05:06;16.30;81.10
55785;DHT22;41709;52.536;5.688;2022-10-31T14:07:43;16.20;81.30
55785;DHT22;41709;52.536;5.688;2022-10-31T14:10:31;16.10;81.60
55785;DHT22;41709;52.536;5.688;2022-10-31T14:15:57;16.00;82.40
55785;DHT22;41709;52.536;5.688;2022-10-31T14:18:28;15.90;82.30
55785;DHT22;41709;52.536;5.688;2022-10-31T14:20:55;15.90;82.50
55785;DHT22;41709;52.536;5.688;2022-10-31T14:23:38;15.80;82.80
55785;DHT22;41709;52.536;5.688;2022-10-31T14:28:45;15.70;83.50
55785;DHT22;41709;52.536;5.688;2022-10-31T14:42:41;15.60;84.20
55785;DHT22;41709;52.536;5.688;2022-10-31T14:45:23;15.60;84.00
55785;DHT22;41709;52.536;5.688;2022-10-31T14:50:54;15.60;84.50
55785;DHT22;41709;52.536;5.688;2022-10-31T14:53:34;15.60;84.70
55785;DHT22;41709;52.536;5.688;2022-10-31T14:56:00;15.70;85.30
55785;DHT22;41709;52.536;5.688;2022-10-31T14:58:39;15.50;85.40
55785;DHT22;41709;52.536;5.688;2022-10-31T15:01:06;15.50;85.70
55785;DHT22;41709;52.536;5.688;2022-10-31T15:03:39;15.40;85.90
55785;DHT22;41709;52.536;5.688;2022-10-31T15:06:16;15.40;86.00
55785;DHT22;41709;52.536;5.688;2022-10-31T15:08:48;15.30;86.10
55785;DHT22;41709;52.536;5.688;2022-10-31T15:11:17;15.30;86.30
55785;DHT22;41709;52.536;5.688;2022-10-31T15:16:15;15.30;86.40
55785;DHT22;41709;52.536;5.688;2022-10-31T15:18:51;15.30;86.40
55785;DHT22;41709;52.536;5.688;2022-10-31T15:21:17;15.30;86.40
55785;DHT22;41709;52.536;5.688;2022-10-31T15:23:45;15.30;86.40
55785;DHT22;41709;52.536;5.688;2022-10-31T15:26:17;15.20;86.50
55785;DHT22;41709;52.536;5.688;2022-10-31T15:28:44;15.20;86.60
55785;DHT22;41709;52.536;5.688;2022-10-31T15:31:15;15.20;86.80
55785;DHT22;41709;52.536;5.688;2022-10-31T15:33:42;15.20;87.00
55785;DHT22;41709;52.536;5.688;2022-10-31T15:36:22;15.10;87.00
55785;DHT22;41709;52.536;5.688;2022-10-31T15:38:49;15.00;87.10
55785;DHT22;41709;52.536;5.688;2022-10-31T15:41:28;15.10;87.20
55785;DHT22;41709;52.536;5.688;2022-10-31T15:43:56;15.10;87.10
55785;DHT22;41709;52.536;5.688;2022-10-31T15:46:24;15.10;87.20
55785;DHT22;41709;52.536;5.688;2022-10-31T15:48:52;15.10;87.10
55785;DHT22;41709;52.536;5.688;2022-10-31T15:51:28;15.00;87.10
55785;DHT22;41709;52.536;5.688;2022-10-31T15:53:56;15.10;87.40
55785;DHT22;41709;52.536;5.688;2022-10-31T15:56:24;15.00;87.40
55785;DHT22;41709;52.536;5.688;2022-10-31T15:58:52;15.00;87.40
55785;DHT22;41709;52.536;5.688;2022-10-31T16:01:21;15.00;87.40
55785;DHT22;41709;52.536;5.688;2022-10-31T16:06:30;14.90;87.30
55785;DHT22;41709;52.536;5.688;2022-10-31T16:08:56;15.00;87.10
55785;DHT22;41709;52.536;5.688;2022-10-31T16:11:30;15.00;87.00
55785;DHT22;41709;52.536;5.688;2022-10-31T16:14:18;14.90;86.90
55785;DHT22;41709;52.536;5.688;2022-10-31T16:16:48;15.00;86.70
55785;DHT22;41709;52.536;5.688;2022-10-31T16:19:21;15.10;86.50
55785;DHT22;41709;52.536;5.688;2022-10-31T16:21:52;15.00;86.20
55785;DHT22;41709;52.536;5.688;2022-10-31T16:24:25;15.00;86.10
55785;DHT22;41709;52.536;5.688;2022-10-31T16:26:53;15.00;86.20
55785;DHT22;41709;52.536;5.688;2022-10-31T16:29:43;15.00;86.10
55785;DHT22;41709;52.536;5.688;2022-10-31T16:32:29;15.00;86.20
55785;DHT22;41709;52.536;5.688;2022-10-31T16:35:33;15.00;86.50
55785;DHT22;41709;52.536;5.688;2022-10-31T16:37:59;15.00;86.40
55785;DHT22;41709;52.536;5.688;2022-10-31T16:40:25;14.90;86.30
55785;DHT22;41709;52.536;5.688;2022-10-31T16:42:51;14.90;86.40
55785;DHT22;41709;52.536;5.688;2022-10-31T16:45:22;14.90;86.60
55785;DHT22;41709;52.536;5.688;2022-10-31T16:47:48;14.80;87.00
55785;DHT22;41709;52.536;5.688;2022-10-31T16:50:25;14.80;87.00
55785;DHT22;41709;52.536;5.688;2022-10-31T16:52:51;14.80;87.00
55785;DHT22;41709;52.536;5.688;2022-10-31T16:55:19;14.80;87.10
55785;DHT22;41709;52.536;5.688;2022-10-31T16:57:55;14.80;87.10
55785;DHT22;41709;52.536;5.688;2022-10-31T17:00:23;14.80;87.00
55785;DHT22;41709;52.536;5.688;2022-10-31T17:02:51;14.80;86.90
55785;DHT22;41709;52.536;5.688;2022-10-31T17:05:19;14.80;86.90
55785;DHT22;41709;52.536;5.688;2022-10-31T17:07:45;14.90;87.00
55785;DHT22;41709;52.536;5.688;2022-10-31T17:10:12;14.90;87.00
55785;DHT22;41709;52.536;5.688;2022-10-31T17:12:42;14.90;87.60
55785;DHT22;41709;52.536;5.688;2022-10-31T17:15:25;14.90;87.10
55785;DHT22;41709;52.536;5.688;2022-10-31T17:17:52;14.90;87.30
55785;DHT22;41709;52.536;5.688;2022-10-31T17:20:21;14.90;87.40
55785;DHT22;41709;52.536;5.688;2022-10-31T17:22:47;14.80;87.50
55785;DHT22;41709;52.536;5.688;2022-10-31T17:25:15;14.80;87.50
55785;DHT22;41709;52.536;5.688;2022-10-31T17:27:41;14.80;87.60
55785;DHT22;41709;52.536;5.688;2022-10-31T17:30:08;14.80;87.60
55785;DHT22;41709;52.536;5.688;2022-10-31T17:32:34;14.80;87.60
55785;DHT22;41709;52.536;5.688;2022-10-31T17:34:59;14.80;87.60
55785;DHT22;41709;52.536;5.688;2022-10-31T17:37:25;14.80;87.70
55785;DHT22;41709;52.536;5.688;2022-10-31T17:39:50;14.80;87.60
55785;DHT22;41709;52.536;5.688;2022-10-31T17:42:16;14.80;87.60
55785;DHT22;41709;52.536;5.688;2022-10-31T17:44:41;14.80;87.70
55785;DHT22;41709;52.536;5.688;2022-10-31T17:47:07;14.80;87.80
55785;DHT22;41709;52.536;5.688;2022-10-31T17:49:32;14.80;87.90
55785;DHT22;41709;52.536;5.688;2022-10-31T17:51:58;14.70;87.90
55785;DHT22;41709;52.536;5.688;2022-10-31T17:54:23;14.90;88.20